Time;durP1;ratioP1;P1;durP2;ratioP2;P2;SDS_P1;SDS_P2;PMS_P1;PMS_P2;Temp;Humidity;BMP_temperature;BMP_pressure;BME280_temperature;BME280_humidity;BME280_pressure;Samples;Min_cycle;Max_cycle;Signal;HPM_P1;HPM_P2
2022/08/14 00:00:52;;;;;;;6.50;4.70;;;;;;;28.54;43.94;101134.25;4930909;28;97322;-67
2022/08/14 00:03:20;;;;;;;8.13;4.47;;;;;;;28.51;44.29;101129.97;4930300;28;99530;-67
2022/08/14 00:05:47;;;;;;;9.85;4.80;;;;;;;28.67;43.59;101129.22;4921305;28;99325;-66
2022/08/14 00:08:14;;;;;;;6.47;4.75;;;;;;;28.63;43.42;101135.97;4919629;28;96740;-67
2022/08/14 00:10:42;;;;;;;5.60;4.85;;;;;;;28.57;43.43;101135.75;4928849;28;96948;-67
2022/08/14 00:13:09;;;;;;;8.68;5.03;;;;;;;28.57;43.31;101133.03;4931039;28;97651;-66
2022/08/14 00:15:39;;;;;;;9.27;5.60;;;;;;;28.33;44.53;101134.63;4924581;28;100708;-67
2022/08/14 00:18:07;;;;;;;7.80;4.45;;;;;;;28.26;45.07;101136.25;4929824;28;96929;-66
2022/08/14 00:20:38;;;;;;;8.85;4.60;;;;;;;28.14;45.71;101138.38;4928612;28;96818;-67
2022/08/14 00:23:06;;;;;;;9.40;4.70;;;;;;;28.07;46.08;101131.84;4930466;28;99083;-67
2022/08/14 00:25:33;;;;;;;4.90;4.40;;;;;;;27.85;46.46;101145.06;4927071;28;98103;-66
2022/08/14 00:28:01;;;;;;;7.97;4.57;;;;;;;27.75;46.57;101137.88;4929049;28;97506;-67
2022/08/14 00:30:28;;;;;;;8.10;4.63;;;;;;;27.50;47.29;101141.31;4926366;28;97093;-67
2022/08/14 00:32:55;;;;;;;13.23;5.28;;;;;;;27.43;47.64;101132.09;4930789;28;99166;-66
2022/08/14 00:35:22;;;;;;;8.90;5.18;;;;;;;27.33;47.62;101125.88;4921434;28;98809;-66
2022/08/14 00:37:48;;;;;;;8.15;4.80;;;;;;;27.43;47.41;101132.09;4925015;28;97139;-67
2022/08/14 00:40:17;;;;;;;12.98;5.22;;;;;;;27.49;46.94;101127.91;4929846;28;97243;-67
2022/08/14 00:42:44;;;;;;;10.27;4.70;;;;;;;27.57;46.68;101134.28;4930377;28;99913;-67
2022/08/14 00:45:14;;;;;;;5.85;4.97;;;;;;;27.54;46.99;101126.47;4930581;28;98787;-66
2022/08/14 00:47:42;;;;;;;5.45;4.60;;;;;;;27.53;46.89;101127.47;4916006;28;97758;-66
2022/08/14 00:50:11;;;;;;;5.28;4.78;;;;;;;27.39;47.34;101125.25;4927637;28;96853;-67
2022/08/14 00:52:38;;;;;;;6.07;4.78;;;;;;;27.47;47.28;101127.19;4930339;28;98990;-66
2022/08/14 00:55:07;;;;;;;11.07;4.75;;;;;;;27.33;47.69;101118.56;4929944;28;98748;-67
2022/08/14 00:57:35;;;;;;;12.90;5.18;;;;;;;27.45;47.09;101118.34;4928209;28;97213;-67
2022/08/14 01:00:04;;;;;;;8.75;6.07;;;;;;;27.37;47.63;101117.25;4928103;28;97116;-67
2022/08/14 01:02:33;;;;;;;7.35;4.82;;;;;;;27.39;47.25;101114.38;4928350;28;98005;-67
2022/08/14 01:05:03;;;;;;;5.20;4.70;;;;;;;27.32;47.06;101106.00;4930388;28;99779;-66
2022/08/14 01:07:30;;;;;;;10.98;5.05;;;;;;;27.23;47.64;101109.66;4922806;28;96992;-66
2022/08/14 01:10:00;;;;;;;6.85;5.30;;;;;;;27.12;48.35;101112.56;4925597;28;97434;-67
2022/08/14 01:12:28;;;;;;;11.18;5.50;;;;;;;27.04;48.94;101115.22;4923373;28;98985;-67
2022/08/14 01:14:55;;;;;;;8.32;5.22;;;;;;;26.90;49.43;101116.56;4923434;28;101083;-68
2022/08/14 01:17:22;;;;;;;6.97;4.97;;;;;;;26.85;49.85;101110.69;4920477;28;96777;-67
2022/08/14 01:22:36;;;;;;;6.30;5.70;;;;;;;26.92;49.55;101105.56;4923723;28;97201;-66
2022/08/14 01:25:02;;;;;;;7.32;5.15;;;;;;;27.04;48.76;101106.22;4925239;28;99109;-67
2022/08/14 01:27:29;;;;;;;9.43;5.90;;;;;;;27.35;47.94;101102.16;4929587;28;97264;-67
2022/08/14 01:29:57;;;;;;;7.53;5.40;;;;;;;27.40;47.90;101107.09;4930019;28;96820;-68
2022/08/14 01:32:24;;;;;;;5.43;4.93;;;;;;;27.47;47.38;101100.91;4927181;28;101830;-69
2022/08/14 01:34:52;;;;;;;7.35;5.20;;;;;;;27.42;47.02;101107.81;4930385;28;98851;-68
2022/08/14 01:37:23;;;;;;;7.18;5.10;;;;;;;27.37;47.18;101106.41;4928406;28;96870;-68
2022/08/14 01:39:52;;;;;;;9.70;5.45;;;;;;;27.44;46.83;101101.22;4924406;28;97055;-67
2022/08/14 01:42:19;;;;;;;6.10;5.35;;;;;;;27.46;47.23;101095.63;4928038;28;99236;-67
2022/08/14 01:44:51;;;;;;;10.48;5.40;;;;;;;27.46;47.77;101107.34;4930274;28;99168;-69
2022/08/14 01:47:18;;;;;;;6.40;4.88;;;;;;;27.46;47.93;101101.91;4926474;28;96779;-68
2022/08/14 01:49:44;;;;;;;12.82;5.97;;;;;;;27.51;47.80;101110.44;4929647;28;96869;-67
2022/08/14 01:52:11;;;;;;;6.18;5.18;;;;;;;27.45;48.01;101112.91;4927726;28;98723;-69
2022/08/14 01:54:41;;;;;;;5.82;5.22;;;;;;;27.48;47.33;101112.63;4933692;28;98826;-68
2022/08/14 01:57:10;;;;;;;10.00;5.75;;;;;;;27.59;47.26;101110.56;4928452;28;97276;-67
2022/08/14 01:59:39;;;;;;;7.50;5.53;;;;;;;27.57;47.23;101107.13;4933341;28;97211;-67
2022/08/14 02:02:11;;;;;;;6.00;5.15;;;;;;;27.50;47.59;101103.31;4928952;28;98853;-67
2022/08/14 02:04:39;;;;;;;7.18;6.00;;;;;;;27.67;47.50;101096.22;4933810;28;98793;-68
2022/08/14 02:07:06;;;;;;;12.68;5.97;;;;;;;27.49;47.73;101107.03;4934494;28;96655;-68
2022/08/14 02:09:37;;;;;;;8.52;5.15;;;;;;;27.39;48.43;101103.53;4935890;28;96805;-69
2022/08/14 02:12:05;;;;;;;10.98;5.55;;;;;;;27.49;48.02;101095.34;4935960;28;99363;-68
2022/08/14 02:14:32;;;;;;;6.35;5.75;;;;;;;27.50;48.11;101092.47;4928998;28;98928;-68
2022/08/14 02:17:00;;;;;;;6.45;5.50;;;;;;;27.51;48.27;101094.16;4933174;28;97877;-67
2022/08/14 02:19:30;;;;;;;11.20;6.25;;;;;;;27.53;48.01;101094.91;4935237;28;96986;-67
2022/08/14 02:21:58;;;;;;;7.53;5.63;;;;;;;27.46;48.14;101098.34;4935024;28;102026;-67
2022/08/14 02:24:29;;;;;;;9.38;5.68;;;;;;;27.43;48.21;101091.38;4929493;28;99057;-67
2022/08/14 02:26:58;;;;;;;10.65;5.82;;;;;;;27.61;47.80;101091.41;4931016;28;96740;-67
2022/08/14 02:29:26;;;;;;;14.05;6.28;;;;;;;27.58;47.86;101089.00;4930830;28;97154;-67
2022/08/14 02:31:57;;;;;;;6.93;5.65;;;;;;;27.50;48.04;101094.34;4935222;28;99492;-68
2022/08/14 02:34:27;;;;;;;10.30;6.40;;;;;;;27.58;47.80;101086.28;4930665;28;99249;-67
2022/08/14 02:36:58;;;;;;;8.40;5.53;;;;;;;27.59;48.00;101090.69;4933632;28;96832;-67
2022/08/14 02:39:25;;;;;;;8.55;5.57;;;;;;;27.65;47.60;101074.63;4931437;28;96887;-67
2022/08/14 02:41:53;;;;;;;7.15;6.20;;;;;;;27.40;48.35;101078.13;4931453;28;98584;-67
2022/08/14 02:44:21;;;;;;;8.98;6.15;;;;;;;27.38;48.48;101077.41;4930807;28;98982;-67
2022/08/14 02:46:49;;;;;;;11.65;5.82;;;;;;;27.41;48.63;101074.41;4930233;28;97167;-67
2022/08/14 02:49:17;;;;;;;7.20;5.18;;;;;;;27.61;48.13;101075.13;4934876;28;96812;-67
2022/08/14 02:51:47;;;;;;;8.98;5.45;;;;;;;27.40;48.75;101066.41;4935420;28;99477;-67
2022/08/14 02:54:13;;;;;;;7.00;5.72;;;;;;;27.43;48.61;101071.53;4933746;28;98900;-67
2022/08/14 02:56:41;;;;;;;7.07;6.10;;;;;;;27.51;48.36;101068.88;4932962;28;97811;-68
2022/08/14 02:59:12;;;;;;;9.68;6.07;;;;;;;27.57;48.19;101062.88;4932281;28;97094;-67
2022/08/14 03:01:39;;;;;;;7.72;6.15;;;;;;;27.52;48.29;101057.91;4935362;28;99365;-67
2022/08/14 03:04:08;;;;;;;6.43;5.75;;;;;;;27.47;48.47;101056.63;4928284;28;98957;-67
2022/08/14 03:06:37;;;;;;;9.45;6.13;;;;;;;27.29;48.87;101060.22;4930920;28;96860;-67
2022/08/14 03:09:04;;;;;;;8.55;6.18;;;;;;;27.30;49.50;101044.78;4930907;28;97320;-68
2022/08/14 03:11:31;;;;;;;11.85;5.85;;;;;;;27.28;49.20;101053.06;4929281;28;98867;-67
2022/08/14 03:13:58;;;;;;;7.10;5.80;;;;;;;27.31;49.21;101057.31;4931827;28;101206;-67
2022/08/14 03:16:26;;;;;;;9.50;5.75;;;;;;;27.33;48.70;101060.75;4928805;28;97122;-67
2022/08/14 03:18:57;;;;;;;8.65;6.22;;;;;;;27.29;48.81;101049.38;4927524;28;96878;-67
2022/08/14 03:21:24;;;;;;;7.60;5.82;;;;;;;27.07;49.26;101049.81;4923898;28;98981;-67
2022/08/14 03:23:59;;;;;;;7.28;6.15;;;;;;;27.22;49.17;101053.69;4922363;28;99003;-68
2022/08/14 03:26:26;;;;;;;8.98;6.13;;;;;;;27.34;48.74;101055.16;4923735;28;96753;-67
2022/08/14 03:28:53;;;;;;;9.43;6.20;;;;;;;27.18;48.80;101054.13;4931403;28;96922;-67
2022/08/14 03:31:22;;;;;;;8.15;6.38;;;;;;;27.51;47.80;101060.72;4933291;28;98268;-67
2022/08/14 03:33:50;;;;;;;7.28;6.32;;;;;;;27.58;47.63;101059.13;4931912;28;98905;-66
2022/08/14 03:36:20;;;;;;;8.20;6.28;;;;;;;27.62;47.18;101055.97;4929564;28;97091;-67
2022/08/14 03:38:48;;;;;;;9.30;6.22;;;;;;;27.63;47.11;101056.81;4930998;28;97291;-67
2022/08/14 03:41:19;;;;;;;12.80;6.38;;;;;;;27.45;48.09;101053.22;4928686;28;99364;-66
2022/08/14 03:43:47;;;;;;;12.55;6.38;;;;;;;27.47;48.34;101056.63;4931244;28;101097;-67
2022/08/14 03:46:17;;;;;;;10.02;5.65;;;;;;;27.32;49.30;101050.91;4930093;28;96873;-68
2022/08/14 03:48:45;;;;;;;9.35;5.90;;;;;;;27.27;49.29;101056.78;4931025;28;96705;-67
2022/08/14 03:51:12;;;;;;;13.18;6.00;;;;;;;27.38;49.22;101044.84;4925046;28;99434;-66
2022/08/14 03:53:41;;;;;;;8.15;6.10;;;;;;;27.18;50.20;101051.44;4931755;28;98791;-67
2022/08/14 03:56:11;;;;;;;7.25;6.53;;;;;;;27.06;50.66;101049.94;4922916;28;97141;-66
2022/08/14 03:58:42;;;;;;;8.57;6.53;;;;;;;27.02;50.61;101054.84;4929624;28;97220;-67
2022/08/14 04:01:09;;;;;;;7.88;6.20;;;;;;;27.14;50.23;101045.47;4923637;28;101388;-67
2022/08/14 04:03:36;;;;;;;10.73;6.35;;;;;;;27.26;49.94;101052.38;4928452;28;99415;-67
2022/08/14 04:06:03;;;;;;;9.77;6.68;;;;;;;27.55;48.93;101054.88;4921939;28;97418;-66
2022/08/14 04:08:29;;;;;;;7.65;6.85;;;;;;;27.65;48.12;101038.50;4926254;28;96936;-66
2022/08/14 04:10:57;;;;;;;7.13;6.47;;;;;;;27.06;49.81;101042.66;4926514;28;98807;-67
2022/08/14 04:13:23;;;;;;;11.00;6.50;;;;;;;27.36;48.95;101038.75;4926738;28;98608;-66
2022/08/14 04:15:51;;;;;;;10.15;6.70;;;;;;;27.36;49.06;101036.03;4929842;28;97655;-68
2022/08/14 04:18:17;;;;;;;7.97;7.18;;;;;;;27.42;49.12;101031.84;4930843;28;96925;-66
2022/08/14 04:20:44;;;;;;;9.30;6.57;;;;;;;27.30;49.47;101023.94;4929410;28;101528;-66
2022/08/14 04:23:11;;;;;;;12.65;7.03;;;;;;;27.12;49.71;101023.06;4929054;28;99086;-66
2022/08/14 04:25:38;;;;;;;9.45;6.30;;;;;;;27.23;49.27;101022.84;4923807;28;97055;-66
2022/08/14 04:28:08;;;;;;;8.93;6.55;;;;;;;27.18;49.54;101027.88;4926717;28;97322;-67
2022/08/14 04:30:38;;;;;;;9.50;6.43;;;;;;;27.28;49.54;101028.66;4924127;28;98916;-66
2022/08/14 04:33:07;;;;;;;6.80;6.05;;;;;;;27.20;49.86;101039.44;4927450;28;100106;-66
2022/08/14 04:35:33;;;;;;;7.13;6.13;;;;;;;27.27;49.26;101034.22;4923823;28;96755;-66
2022/08/14 04:43:38;;;;;;;7.18;6.03;;;;;;;27.32;49.06;101027.34;4924230;28;97097;-66
2022/08/14 04:46:07;;;;;;;8.73;6.47;;;;;;;27.31;48.75;101030.19;4926586;28;96850;-66
2022/08/14 04:48:35;;;;;;;9.80;6.70;;;;;;;27.32;48.76;101030.03;4923876;28;97119;-67
2022/08/14 04:51:02;;;;;;;8.18;6.10;;;;;;;27.65;48.51;101033.91;4924679;28;97120;-67
2022/08/14 04:53:30;;;;;;;17.48;6.57;;;;;;;27.43;49.27;101038.97;4930622;28;101611;-67
2022/08/14 04:55:57;;;;;;;9.40;6.68;;;;;;;27.66;48.93;101035.63;4928363;28;97234;-67
2022/08/14 04:58:25;;;;;;;9.30;6.70;;;;;;;27.87;48.29;101029.84;4929398;28;96956;-66
2022/08/14 05:00:53;;;;;;;6.60;5.95;;;;;;;27.78;48.45;101033.50;4930827;28;97831;-67
2022/08/14 05:03:21;;;;;;;7.53;6.55;;;;;;;27.70;48.27;101034.28;4929712;28;99055;-66
2022/08/14 05:05:50;;;;;;;10.02;6.53;;;;;;;27.81;48.57;101041.34;4929621;28;97121;-67
2022/08/14 05:08:17;;;;;;;11.75;6.10;;;;;;;27.74;48.98;101032.97;4924505;28;97186;-67
2022/08/14 05:10:45;;;;;;;8.48;6.40;;;;;;;28.04;48.33;101026.22;4928394;28;99002;-66
2022/08/14 05:13:12;;;;;;;9.73;6.88;;;;;;;27.93;48.83;101037.34;4926632;28;98874;-68
2022/08/14 05:15:41;;;;;;;9.18;6.43;;;;;;;28.01;48.72;101029.28;4927100;28;97110;-67
2022/08/14 05:18:11;;;;;;;8.95;6.45;;;;;;;28.13;48.25;101027.97;4924837;28;97126;-67
2022/08/14 05:20:38;;;;;;;7.15;6.38;;;;;;;28.19;48.07;101023.78;4928027;28;100181;-67
2022/08/14 05:23:07;;;;;;;13.30;7.22;;;;;;;28.35;47.20;101020.31;4923748;28;98811;-68
2022/08/14 05:25:33;;;;;;;9.13;6.50;;;;;;;28.39;47.06;101024.41;4925481;28;96992;-68
2022/08/14 05:28:06;;;;;;;9.15;6.63;;;;;;;28.44;47.31;101017.47;4920860;28;96906;-67
2022/08/14 05:30:33;;;;;;;8.32;6.25;;;;;;;28.31;47.67;101021.66;4924835;28;98996;-67
2022/08/14 05:33:00;;;;;;;8.07;7.03;;;;;;;28.39;47.05;101021.69;4930026;28;99516;-67
2022/08/14 05:35:26;;;;;;;12.00;6.95;;;;;;;28.55;46.48;101010.91;4929017;28;97301;-69
2022/08/14 05:37:53;;;;;;;10.18;6.75;;;;;;;28.74;45.85;101009.78;4929065;28;96825;-67
2022/08/14 05:40:21;;;;;;;9.27;6.47;;;;;;;29.11;44.67;100998.47;4928889;28;99473;-66
2022/08/14 05:42:48;;;;;;;8.95;7.00;;;;;;;29.20;44.00;100995.63;4929929;28;98812;-67
2022/08/14 05:45:16;;;;;;;9.65;6.57;;;;;;;29.18;44.18;100991.34;4924055;28;97949;-67
2022/08/14 05:47:42;;;;;;;7.35;6.57;;;;;;;29.78;42.54;100986.44;4921023;28;96807;-66
2022/08/14 05:50:11;;;;;;;7.18;6.45;;;;;;;29.68;42.52;100988.47;4923186;28;98918;-67
2022/08/14 05:52:38;;;;;;;10.02;6.57;;;;;;;29.76;42.44;100987.59;4929382;28;98867;-67
2022/08/14 05:55:06;;;;;;;7.65;6.72;;;;;;;29.68;41.96;100992.03;4926927;28;97312;-66
2022/08/14 05:57:34;;;;;;;8.32;6.90;;;;;;;29.84;41.14;100993.91;4924002;28;96779;-66
2022/08/14 06:00:01;;;;;;;7.97;6.53;;;;;;;29.86;41.49;100999.19;4925743;28;99622;-67
2022/08/14 06:02:27;;;;;;;9.80;6.38;;;;;;;30.11;41.28;101000.84;4923322;28;99030;-66
2022/08/14 06:04:54;;;;;;;7.75;6.95;;;;;;;30.37;40.49;100995.13;4926940;28;98342;-66
2022/08/14 06:07:20;;;;;;;12.43;6.88;;;;;;;30.15;40.82;101002.19;4919883;28;97346;-67
2022/08/14 06:09:46;;;;;;;11.82;6.80;;;;;;;30.16;40.81;100998.44;4921946;28;99241;-66
2022/08/14 06:12:13;;;;;;;10.98;6.90;;;;;;;30.56;39.85;100996.63;4922944;28;99030;-66
2022/08/14 06:14:42;;;;;;;13.63;7.00;;;;;;;30.74;38.92;100992.59;4929203;28;96888;-66
2022/08/14 06:17:08;;;;;;;8.73;6.78;;;;;;;30.92;38.72;100983.28;4927080;28;96940;-66
2022/08/14 06:19:35;;;;;;;8.98;6.35;;;;;;;30.54;39.10;100985.88;4929073;28;99531;-68
2022/08/14 06:22:01;;;;;;;9.98;6.65;;;;;;;30.88;38.97;100980.91;4928404;28;98924;-67
2022/08/14 06:24:28;;;;;;;10.15;6.78;;;;;;;31.06;38.38;100980.66;4927960;28;96824;-66
2022/08/14 06:26:55;;;;;;;9.63;6.25;;;;;;;31.12;38.18;100977.19;4927670;28;97555;-66
2022/08/14 06:29:21;;;;;;;9.63;7.18;;;;;;;31.27;38.06;100982.72;4927031;28;100902;-66
2022/08/14 06:31:49;;;;;;;10.18;7.43;;;;;;;31.40;37.55;100966.56;4929391;28;102287;-66
2022/08/14 06:34:15;;;;;;;9.75;6.78;;;;;;;31.18;37.80;100962.81;4928357;28;96794;-67
2022/08/14 06:36:42;;;;;;;7.50;6.68;;;;;;;31.38;37.69;100968.59;4927006;28;97315;-67
2022/08/14 06:39:08;;;;;;;6.85;6.25;;;;;;;31.22;37.76;100960.56;4926749;28;97264;-66
2022/08/14 06:41:35;;;;;;;11.38;6.45;;;;;;;31.42;37.26;100969.09;4929369;28;99004;-66
2022/08/14 06:44:01;;;;;;;9.05;6.75;;;;;;;31.63;36.79;100972.88;4927620;28;97112;-67
2022/08/14 06:46:29;;;;;;;9.15;7.03;;;;;;;31.59;36.64;100970.66;4928232;28;98086;-66
2022/08/14 06:48:57;;;;;;;7.90;6.55;;;;;;;31.78;36.80;100972.88;4932037;28;101920;-67
2022/08/14 06:51:24;;;;;;;7.43;6.68;;;;;;;31.86;36.47;100974.66;4927302;28;99398;-67
2022/08/14 06:53:50;;;;;;;7.38;6.65;;;;;;;31.76;36.65;100974.97;4931587;28;96830;-66
2022/08/14 06:56:17;;;;;;;7.30;6.63;;;;;;;31.60;36.67;100970.50;4931164;28;97151;-67
2022/08/14 06:58:43;;;;;;;9.32;6.95;;;;;;;31.70;36.50;100972.13;4930499;28;102360;-66
2022/08/14 07:06:41;;;;;;;10.18;7.25;;;;;;;32.00;35.95;100977.41;4924116;28;98398;-66
2022/08/14 07:09:11;;;;;;;7.78;6.70;;;;;;;31.71;36.26;100969.19;4931751;28;98935;-67
2022/08/14 07:11:38;;;;;;;10.40;7.05;;;;;;;31.72;36.46;100965.41;4929070;28;98249;-68
2022/08/14 07:14:04;;;;;;;10.52;7.20;;;;;;;31.73;36.35;100961.66;4929688;28;96767;-67
2022/08/14 07:16:31;;;;;;;10.68;7.50;;;;;;;31.70;36.48;100958.47;4927392;28;97078;-67
2022/08/14 07:18:59;;;;;;;8.65;6.88;;;;;;;31.87;35.93;100952.63;4927774;28;98475;-66
2022/08/14 07:21:25;;;;;;;9.52;7.72;;;;;;;31.89;36.49;100947.84;4926342;28;99173;-66
2022/08/14 07:23:51;;;;;;;8.63;6.93;;;;;;;32.06;36.09;100948.47;4928620;28;96970;-66
2022/08/14 07:26:18;;;;;;;8.52;7.32;;;;;;;32.12;35.85;100947.72;4926625;28;96901;-66
2022/08/14 07:28:44;;;;;;;7.90;6.95;;;;;;;32.30;35.90;100941.88;4926096;28;99178;-68
2022/08/14 07:31:12;;;;;;;8.75;6.88;;;;;;;32.18;35.76;100944.25;4927469;28;99185;-68
2022/08/14 07:33:42;;;;;;;9.05;7.65;;;;;;;32.89;34.86;100936.28;4928695;28;96908;-67
2022/08/14 07:36:11;;;;;;;9.70;7.07;;;;;;;32.90;34.54;100948.94;4930311;28;96899;-66
2022/08/14 07:38:39;;;;;;;6.43;5.82;;;;;;;32.71;34.15;100945.78;4930637;28;99445;-67
2022/08/14 07:41:09;;;;;;;7.35;6.53;;;;;;;32.65;34.66;100945.69;4931409;28;98942;-67
2022/08/14 07:43:36;;;;;;;8.82;6.35;;;;;;;33.06;34.23;100935.84;4931093;28;96766;-66
2022/08/14 07:46:03;;;;;;;7.70;6.28;;;;;;;33.20;33.40;100943.19;4928530;28;98334;-67
2022/08/14 07:48:29;;;;;;;9.98;6.13;;;;;;;33.23;33.10;100939.19;4930418;28;99308;-66
2022/08/14 07:50:56;;;;;;;15.07;7.25;;;;;;;33.30;33.32;100936.50;4926775;28;97505;-67
2022/08/14 07:53:24;;;;;;;11.25;7.55;;;;;;;33.30;32.64;100926.38;4926289;28;96850;-67
2022/08/14 07:55:50;;;;;;;7.88;5.45;;;;;;;33.56;31.97;100923.00;4923016;28;96821;-67
2022/08/14 07:58:17;;;;;;;11.30;7.90;;;;;;;33.43;32.30;100915.53;4930090;28;99199;-66
2022/08/14 08:00:44;;;;;;;9.10;5.40;;;;;;;33.47;31.39;100919.59;4923780;28;98852;-67
2022/08/14 08:03:11;;;;;;;8.85;6.20;;;;;;;33.12;32.00;100920.53;4926601;28;97264;-66
2022/08/14 08:05:41;;;;;;;8.65;5.65;;;;;;;33.01;32.33;100921.06;4919704;28;96793;-68
2022/08/14 08:08:08;;;;;;;7.57;5.60;;;;;;;33.28;32.14;100930.41;4925336;28;99682;-67
2022/08/14 08:10:40;;;;;;;6.18;5.57;;;;;;;33.17;32.43;100928.97;4920509;28;99244;-67
2022/08/14 08:13:09;;;;;;;8.77;5.40;;;;;;;33.42;31.80;100923.94;4929321;28;97128;-66
2022/08/14 08:15:38;;;;;;;10.50;5.65;;;;;;;33.48;31.94;100924.00;4923752;28;97409;-67
2022/08/14 08:18:09;;;;;;;6.82;5.95;;;;;;;33.65;32.09;100926.44;4927457;28;98485;-67
2022/08/14 08:20:37;;;;;;;9.57;5.75;;;;;;;33.31;32.19;100919.88;4925097;28;99323;-68
2022/08/14 08:23:05;;;;;;;6.63;5.93;;;;;;;33.60;31.30;100918.84;4927902;28;96889;-67
2022/08/14 08:25:33;;;;;;;8.75;5.97;;;;;;;33.67;31.57;100924.38;4924010;28;97374;-68
2022/08/14 08:28:06;;;;;;;9.35;5.80;;;;;;;33.85;31.34;100917.34;4924698;28;98771;-68
2022/08/14 08:30:33;;;;;;;8.77;6.30;;;;;;;33.92;31.63;100917.38;4925418;28;98878;-66
2022/08/14 08:33:01;;;;;;;9.38;5.60;;;;;;;33.94;31.09;100910.63;4928177;28;96686;-68
2022/08/14 08:35:30;;;;;;;9.75;5.90;;;;;;;34.17;31.13;100909.50;4923700;28;97206;-67
2022/08/14 08:38:03;;;;;;;9.73;6.47;;;;;;;34.26;30.37;100908.31;4920499;28;99303;-68
2022/08/14 08:40:34;;;;;;;7.55;5.75;;;;;;;34.40;30.40;100905.38;4925644;28;99423;-68
2022/08/14 08:43:05;;;;;;;8.85;5.93;;;;;;;34.42;30.24;100913.41;4924397;28;97242;-68
2022/08/14 08:45:32;;;;;;;8.45;5.43;;;;;;;34.76;29.82;100905.09;4925473;28;97276;-69
2022/08/14 08:47:59;;;;;;;8.27;5.57;;;;;;;34.61;29.96;100900.81;4921285;28;99337;-67
2022/08/14 08:50:29;;;;;;;9.60;5.70;;;;;;;34.66;29.78;100888.16;4930192;28;99001;-69
2022/08/14 08:52:57;;;;;;;6.85;5.32;;;;;;;34.90;29.89;100892.25;4929213;28;96708;-69
2022/08/14 08:55:32;;;;;;;7.80;5.38;;;;;;;34.66;29.60;100879.06;4925502;28;96951;-68
2022/08/14 08:58:00;;;;;;;8.25;5.45;;;;;;;34.94;29.51;100882.53;4925406;28;98947;-66
2022/08/14 09:00:33;;;;;;;10.15;5.82;;;;;;;34.59;29.60;100880.97;4930498;28;98662;-67
2022/08/14 09:03:03;;;;;;;6.57;4.88;;;;;;;34.87;29.44;100887.16;4923053;28;97012;-67
2022/08/14 09:05:33;;;;;;;7.68;5.72;;;;;;;34.74;29.48;100881.66;4921668;28;96852;-67
2022/08/14 09:08:14;;;;;;;8.23;5.35;;;;;;;34.83;29.45;100888.66;4929241;28;99430;-68
2022/08/14 09:10:41;;;;;;;6.18;5.43;;;;;;;34.86;29.33;100877.22;4928394;28;98905;-69
2022/08/14 09:13:10;;;;;;;4.78;4.38;;;;;;;34.95;29.19;100875.97;4927927;28;98324;-68
2022/08/14 09:15:39;;;;;;;9.25;4.97;;;;;;;35.05;29.08;100873.66;4925617;28;97411;-67
2022/08/14 09:18:07;;;;;;;7.63;4.65;;;;;;;34.96;28.84;100871.34;4926472;28;99563;-67
2022/08/14 09:20:34;;;;;;;5.28;4.80;;;;;;;34.91;29.61;100869.22;4928880;28;99045;-67
2022/08/14 09:23:01;;;;;;;5.80;4.60;;;;;;;34.73;29.14;100866.22;4925213;28;96963;-67
2022/08/14 09:25:28;;;;;;;9.18;4.28;;;;;;;34.91;28.70;100860.16;4925476;28;97253;-67
2022/08/14 09:27:55;;;;;;;5.68;4.15;;;;;;;34.93;28.98;100860.75;4927813;28;99267;-68
2022/08/14 09:30:22;;;;;;;7.68;4.25;;;;;;;34.84;28.42;100860.16;4925253;28;98964;-67
2022/08/14 09:33:03;;;;;;;6.57;4.47;;;;;;;34.74;29.00;100860.53;4930151;28;97096;-67
2022/08/14 09:35:39;;;;;;;8.15;4.20;;;;;;;34.89;28.11;100860.34;4920770;28;97210;-67
2022/08/14 09:38:31;;;;;;;6.10;4.47;;;;;;;35.08;28.39;100859.50;4923160;28;99192;-68
2022/08/14 09:41:10;;;;;;;8.90;4.13;;;;;;;35.06;28.34;100853.38;4927495;28;98932;-68
2022/08/14 09:43:46;;;;;;;9.60;4.65;;;;;;;35.07;28.22;100854.22;4929815;28;97377;-68
2022/08/14 09:46:15;;;;;;;11.75;4.85;;;;;;;35.24;28.62;100849.19;4928805;28;96843;-67
2022/08/14 09:48:43;;;;;;;6.60;4.20;;;;;;;35.36;28.05;100851.06;4928263;28;99372;-67
2022/08/14 09:51:22;;;;;;;5.15;4.65;;;;;;;35.26;28.08;100838.81;4928960;28;98846;-69
2022/08/14 09:54:00;;;;;;;7.60;3.95;;;;;;;35.01;28.44;100831.22;4929654;28;96895;-67
2022/08/14 09:56:26;;;;;;;6.18;4.00;;;;;;;35.36;27.83;100828.25;4926721;28;96878;-68
2022/08/14 09:58:53;;;;;;;4.72;3.88;;;;;;;34.94;27.70;100830.34;4927189;28;99601;-68
2022/08/14 10:01:20;;;;;;;7.60;4.28;;;;;;;35.16;27.66;100833.75;4920360;28;99471;-68
2022/08/14 10:03:51;;;;;;;5.38;3.60;;;;;;;35.02;27.55;100832.91;4926651;28;97335;-68
2022/08/14 10:06:20;;;;;;;9.57;3.80;;;;;;;35.54;26.96;100831.16;4927968;28;97419;-67
2022/08/14 10:08:49;;;;;;;7.93;3.72;;;;;;;35.58;26.52;100826.91;4923577;28;98953;-67
2022/08/14 10:11:23;;;;;;;4.80;3.05;;;;;;;35.79;26.10;100818.41;4928709;28;99691;-68
2022/08/14 10:13:53;;;;;;;6.20;3.00;;;;;;;35.91;26.02;100816.69;4929721;28;96765;-68
2022/08/14 10:16:22;;;;;;;4.78;3.10;;;;;;;36.01;25.95;100804.38;4931295;28;97026;-67
2022/08/14 10:19:00;;;;;;;7.60;3.30;;;;;;;36.10;26.10;100805.81;4929209;28;99994;-67
2022/08/14 10:21:27;;;;;;;10.38;3.03;;;;;;;36.08;25.72;100794.19;4923215;28;100050;-70
2022/08/14 10:23:54;;;;;;;6.28;2.67;;;;;;;36.46;25.26;100795.03;4925834;28;97221;-68
2022/08/14 10:26:21;;;;;;;6.55;2.97;;;;;;;36.58;24.90;100801.50;4927693;28;96940;-67
2022/08/14 10:28:49;;;;;;;7.55;3.10;;;;;;;36.37;24.54;100788.09;4927736;28;98959;-67
2022/08/14 10:31:19;;;;;;;10.93;2.70;;;;;;;36.41;24.93;100789.38;4933868;28;99385;-67
2022/08/14 10:34:01;;;;;;;5.78;2.50;;;;;;;36.43;24.51;100784.47;4926151;28;97005;-68
2022/08/14 10:36:31;;;;;;;7.07;2.88;;;;;;;36.45;24.44;100787.84;4928537;28;96689;-68
2022/08/14 10:38:59;;;;;;;4.97;2.75;;;;;;;36.31;24.28;100777.97;4931632;28;99049;-68
2022/08/14 10:41:35;;;;;;;7.18;3.28;;;;;;;36.28;24.13;100762.78;4929716;28;99136;-67
2022/08/14 10:44:07;;;;;;;5.00;3.20;;;;;;;36.30;24.14;100762.56;4928876;28;96856;-67
2022/08/14 10:46:40;;;;;;;4.03;3.00;;;;;;;36.01;24.63;100749.38;4929164;28;97077;-68
2022/08/14 10:49:17;;;;;;;3.85;2.92;;;;;;;36.11;24.67;100757.97;4926641;28;99045;-68
2022/08/14 10:52:04;;;;;;;7.03;3.05;;;;;;;36.21;24.54;100744.63;4928330;28;98962;-67
2022/08/14 10:54:37;;;;;;;7.68;3.00;;;;;;;36.05;24.24;100743.22;4924024;28;97538;-68
2022/08/14 10:57:13;;;;;;;10.68;3.30;;;;;;;35.75;24.49;100728.38;4925038;28;97257;-68
2022/08/14 10:59:46;;;;;;;6.50;3.97;;;;;;;36.05;24.57;100742.38;4928259;28;99480;-67
2022/08/14 11:02:28;;;;;;;5.55;3.40;;;;;;;35.91;24.22;100739.69;4928943;28;99682;-67
2022/08/14 11:05:06;;;;;;;6.30;3.05;;;;;;;35.99;24.69;100741.34;4930960;28;97583;-67
2022/08/14 11:07:33;;;;;;;5.82;3.17;;;;;;;35.99;24.58;100741.34;4930153;28;96808;-67
2022/08/14 11:10:02;;;;;;;2.88;2.60;;;;;;;35.64;24.95;100729.88;4931023;28;98872;-67
2022/08/14 11:12:40;;;;;;;3.80;2.60;;;;;;;35.69;25.37;100731.97;4931544;28;99000;-67
2022/08/14 11:15:08;;;;;;;5.15;2.92;;;;;;;35.76;25.44;100732.81;4927837;28;97096;-67
2022/08/14 11:17:36;;;;;;;7.05;3.08;;;;;;;35.88;24.94;100729.16;4932149;28;97394;-67
2022/08/14 11:20:06;;;;;;;7.25;3.30;;;;;;;35.68;24.63;100722.88;4931130;28;98954;-66
2022/08/14 11:22:33;;;;;;;6.60;2.97;;;;;;;35.65;24.54;100736.19;4926625;28;97726;-66
2022/08/14 11:25:05;;;;;;;4.70;3.20;;;;;;;35.70;24.10;100730.94;4926018;28;96746;-67
2022/08/14 11:27:37;;;;;;;6.15;3.00;;;;;;;35.65;24.32;100722.47;4925562;28;97383;-68
2022/08/14 11:30:07;;;;;;;4.70;3.00;;;;;;;35.70;24.50;100715.31;4924861;28;98977;-68
2022/08/14 11:32:35;;;;;;;14.40;3.20;;;;;;;35.69;25.07;100719.09;4932083;28;99648;-68
2022/08/14 11:35:03;;;;;;;4.00;2.58;;;;;;;35.80;24.56;100710.16;4922427;28;97198;-67
2022/08/14 11:37:32;;;;;;;6.05;2.75;;;;;;;35.66;25.07;100724.16;4930198;28;96759;-67
2022/08/14 11:39:59;;;;;;;4.70;2.85;;;;;;;35.84;25.01;100716.06;4928290;28;101546;-67
2022/08/14 11:42:28;;;;;;;5.65;2.90;;;;;;;35.77;24.83;100713.34;4930457;28;97706;-68
2022/08/14 11:44:58;;;;;;;9.25;3.15;;;;;;;35.71;24.93;100714.22;4930294;28;97197;-67